메인 페이지
METAR-TAF:

METAR-TAF

공항 :

Ely Airport (Yelland Field)

일리, 네바다, 미국

위도: 39-17-42N, 경도: 114-50-43W, 고도: 1907m

현재 날씨관측

예보는 33분 전, 06:53시(UTC)에 발표되었습니다.
8kt
온도 5°C
습도 60%
기압 1024 hPa
시정: 16.1km
맑음

METAR: KELY 210653Z AUTO 18008KT 10SM CLR 05/M02 A3025 RMK AO2 SLP191 T00501017

시각: 00:26 (07:26 UTC)

예보

예보는 2 시간 6분 전, 05:20시(UTC)에 발표되었습니다.
예보 대상 시간: 21일 06시부터 22일 06시까지 (UTC)
9kt
시정: 10km
고도 5000ft 상공 구름 조금
고도 7000ft 상공 구름 많음
21일 1500시부터 (UTC)
여러 방향의 바람 6kt
시정: 10km
고도 4000ft 상공 구름 보통
고도 6000ft 상공 구름 많음
시계 내 소나기
21일 2200시부터 (UTC)
남남동6kt
시정: 10km
고도 3500ft 상공 구름 보통
고도 5000ft 상공 구름 많음, 적란운.
시계 내 뇌우
22일 0400시부터 (UTC)
남남동6kt
시정: 10km
고도 2500ft 상공 구름 보통
고도 4000ft 상공 구름 많음
약한비

TAF: KELY 210520Z 2106/2206 18009KT P6SM FEW050 BKN070 FM211500 VRB06KT P6SM VCSH SCT040 BKN060 FM212200 16006KT P6SM VCTS SCT035 BKN050CB FM220400 16006KT P6SM -RA SCT025 BKN040

4,000개 이상의 공항 관측 자료 및 예보 (METAR 및 TAF 보고).

지도상에서 검색 가능한 기상관측소가 노란 점과 빨간 점으로 표시되어 있습니다.

기상관측소 명을 보려면 표시 위로 마우스를 이동하세요.

날씨 관측과 예보를 보려면 클릭하세요.

지도 변경 : 확대하려면 엑스 표시가 있는 녹색 버튼, 축소하려면 빼기 표시가 있는 녹색 버튼, 다음 페이지의 지도를 보려면 녹색 화살표를 클릭하세요.


METAR-TAF: